createdAt,value
2022-10-17T00:01:23.710Z,3.92
2022-10-17T00:06:29.758Z,4.10
2022-10-17T00:11:37.781Z,4.13
2022-10-17T00:16:43.446Z,4.53
2022-10-17T00:21:48.871Z,4.43
2022-10-17T00:26:59.804Z,4.10
2022-10-17T00:32:05.573Z,4.60
2022-10-17T00:37:11.583Z,4.32
2022-10-17T00:42:19.987Z,3.90
2022-10-17T00:47:26.100Z,4.00
2022-10-17T00:52:33.010Z,4.20
2022-10-17T00:57:42.398Z,4.43
2022-10-17T01:02:48.338Z,4.20
2022-10-17T01:07:57.007Z,4.28
2022-10-17T01:13:12.660Z,4.50
2022-10-17T01:18:31.245Z,4.20
2022-10-17T01:24:06.775Z,3.80
2022-10-17T01:29:36.873Z,4.50
2022-10-17T01:34:57.559Z,3.97
2022-10-17T01:40:10.654Z,4.00
2022-10-17T01:45:20.831Z,3.97
2022-10-17T01:50:34.799Z,4.45
2022-10-17T01:55:44.457Z,4.40
2022-10-17T02:00:51.880Z,4.50
2022-10-17T02:05:59.952Z,4.53
2022-10-17T02:11:12.566Z,3.77
2022-10-17T02:16:29.460Z,3.80
2022-10-17T02:21:47.074Z,3.28
2022-10-17T02:26:58.274Z,3.90
2022-10-17T02:32:08.551Z,3.80
2022-10-17T02:37:21.507Z,4.20
2022-10-17T02:42:29.577Z,3.65
2022-10-17T02:47:39.965Z,3.90
2022-10-17T02:52:53.464Z,3.65
2022-10-17T02:58:02.966Z,3.90
2022-10-17T03:03:22.159Z,4.30
2022-10-17T03:08:30.405Z,3.90
2022-10-17T03:13:38.947Z,3.60
2022-10-17T03:18:47.989Z,3.97
2022-10-17T03:23:59.021Z,3.80
2022-10-17T03:29:04.624Z,3.30
2022-10-17T03:34:12.386Z,3.63
2022-10-17T03:39:20.489Z,3.60
2022-10-17T03:44:26.681Z,4.10
2022-10-17T03:49:32.499Z,3.43
2022-10-17T03:54:41.262Z,3.28
2022-10-17T03:59:47.393Z,3.50
2022-10-17T04:04:58.252Z,3.50
2022-10-17T04:10:06.734Z,4.15
2022-10-17T04:15:13.457Z,3.53
2022-10-17T04:20:19.046Z,3.33
2022-10-17T04:25:28.091Z,3.78
2022-10-17T04:30:33.454Z,3.47
2022-10-17T04:35:38.939Z,3.93
2022-10-17T04:40:49.539Z,3.50
2022-10-17T04:45:54.938Z,3.50
2022-10-17T04:51:02.564Z,3.70
2022-10-17T04:56:21.672Z,3.45
2022-10-17T05:01:27.292Z,3.40
2022-10-17T05:06:33.687Z,3.30
2022-10-17T05:12:02.019Z,3.38
2022-10-17T05:17:09.356Z,3.50
2022-10-17T05:22:16.042Z,3.60
2022-10-17T05:27:25.087Z,3.65
2022-10-17T05:32:30.962Z,3.72
2022-10-17T05:37:37.414Z,4.17
2022-10-17T05:42:49.665Z,3.85
2022-10-17T05:47:57.414Z,4.13
2022-10-17T05:53:03.240Z,3.67
2022-10-17T05:58:21.732Z,4.03
2022-10-17T06:03:33.510Z,3.75
2022-10-17T06:08:43.140Z,3.70
2022-10-17T06:13:56.008Z,3.50
2022-10-17T06:19:04.086Z,3.40
2022-10-17T06:24:10.348Z,3.93
2022-10-17T06:29:22.174Z,3.60
2022-10-17T06:34:30.242Z,3.33
2022-10-17T06:39:38.181Z,3.20
2022-10-17T06:44:51.415Z,3.50
2022-10-17T06:50:00.207Z,3.47
2022-10-17T06:55:28.910Z,3.43
2022-10-17T07:01:01.365Z,3.30
2022-10-17T07:06:07.954Z,3.30
2022-10-17T07:11:15.293Z,3.60
2022-10-17T07:16:24.186Z,3.30
2022-10-17T07:21:39.257Z,3.55
2022-10-17T07:26:47.257Z,3.55
2022-10-17T07:31:56.447Z,3.50
2022-10-17T07:37:01.922Z,3.55
2022-10-17T07:42:11.233Z,3.47
2022-10-17T07:47:19.361Z,2.80
2022-10-17T07:52:27.705Z,3.40
2022-10-17T07:57:33.528Z,3.35
2022-10-17T08:02:41.358Z,3.40
2022-10-17T08:07:48.029Z,3.42
2022-10-17T08:12:53.970Z,5.25
2022-10-17T08:18:02.297Z,3.60
2022-10-17T08:23:07.967Z,2.97
2022-10-17T08:28:17.959Z,4.07
2022-10-17T08:33:26.087Z,3.10
2022-10-17T08:38:35.440Z,3.40
2022-10-17T08:44:06.187Z,3.15
2022-10-17T08:49:23.002Z,3.45
2022-10-17T08:54:39.038Z,3.40
2022-10-17T08:59:46.155Z,2.95
2022-10-17T09:05:13.676Z,3.40
2022-10-17T09:10:31.247Z,3.57
2022-10-17T09:15:51.227Z,2.85
2022-10-17T09:21:03.471Z,3.40
2022-10-17T09:26:13.072Z,3.30
2022-10-17T09:31:24.974Z,3.50
2022-10-17T09:36:38.905Z,3.40
2022-10-17T09:41:47.343Z,3.35
2022-10-17T09:47:25.476Z,4.00
2022-10-17T09:52:47.755Z,3.92
2022-10-17T09:57:58.937Z,4.47
2022-10-17T10:03:19.840Z,3.20
2022-10-17T10:08:30.640Z,3.65
2022-10-17T10:13:38.295Z,3.38
2022-10-17T10:18:45.424Z,3.40
2022-10-17T10:24:16.382Z,4.00
2022-10-17T10:29:31.303Z,3.80
2022-10-17T10:34:39.529Z,3.55
2022-10-17T10:39:53.204Z,3.07
2022-10-17T10:45:02.836Z,3.40
2022-10-17T10:50:24.096Z,3.33
2022-10-17T10:55:37.855Z,3.80
2022-10-17T11:00:44.691Z,3.53
2022-10-17T11:05:56.318Z,3.47
2022-10-17T11:11:20.107Z,3.63
2022-10-17T11:16:32.149Z,3.87
2022-10-17T11:21:46.420Z,3.00
2022-10-17T11:26:59.570Z,3.38
2022-10-17T11:32:10.040Z,3.40
2022-10-17T11:37:20.551Z,3.45
2022-10-17T11:42:33.144Z,4.25
2022-10-17T11:47:44.322Z,3.73
2022-10-17T11:52:56.930Z,3.80
2022-10-17T11:58:20.381Z,4.13
2022-10-17T12:03:47.755Z,3.67
2022-10-17T12:08:58.389Z,4.50
2022-10-17T12:14:28.248Z,4.20
2022-10-17T12:19:35.799Z,4.65
2022-10-17T12:24:44.937Z,4.17
2022-10-17T12:29:53.519Z,4.20
2022-10-17T12:35:01.357Z,4.60
2022-10-17T12:40:28.455Z,4.33
2022-10-17T12:45:55.727Z,4.78
2022-10-17T12:56:39.294Z,4.93
2022-10-17T13:01:51.480Z,3.97
2022-10-17T13:07:01.267Z,5.03
2022-10-17T13:12:09.313Z,4.00
2022-10-17T13:17:29.110Z,4.40
2022-10-17T13:22:36.407Z,4.10
2022-10-17T13:27:42.661Z,4.05
2022-10-17T13:32:50.576Z,5.40
2022-10-17T13:37:57.293Z,4.43
2022-10-17T13:43:06.027Z,3.53
2022-10-17T13:48:23.319Z,3.00
2022-10-17T13:53:34.505Z,3.27
2022-10-17T13:58:44.928Z,3.83
2022-10-17T14:04:07.235Z,8.45
2022-10-17T14:09:23.104Z,3.13
2022-10-17T14:14:32.134Z,3.30
2022-10-17T14:19:48.365Z,2.40
2022-10-17T14:25:02.277Z,2.47
2022-10-17T14:30:55.334Z,2.53
2022-10-17T14:36:01.150Z,2.85
2022-10-17T14:46:39.514Z,3.60
2022-10-17T14:52:31.731Z,3.10
2022-10-17T14:57:47.813Z,2.70
2022-10-17T15:02:54.690Z,2.80
2022-10-17T15:08:00.123Z,2.78
2022-10-17T15:18:34.164Z,3.13
2022-10-17T15:23:39.856Z,2.83
2022-10-17T15:28:49.754Z,3.20
2022-10-17T15:33:56.186Z,3.07
2022-10-17T15:39:02.901Z,3.43
2022-10-17T15:44:11.316Z,3.50
2022-10-17T15:49:19.823Z,3.75
2022-10-17T15:54:26.317Z,3.03
2022-10-17T15:59:37.797Z,3.75
2022-10-17T16:04:43.132Z,3.17
2022-10-17T16:09:49.108Z,3.60
2022-10-17T16:14:58.055Z,3.75
2022-10-17T16:20:03.318Z,3.40
2022-10-17T16:25:19.629Z,3.03
2022-10-17T16:30:30.235Z,3.97
2022-10-17T16:35:37.586Z,4.40
2022-10-17T16:40:43.656Z,3.57
2022-10-17T16:45:51.701Z,3.80
2022-10-17T16:50:57.367Z,3.78
2022-10-17T16:56:07.452Z,3.95
2022-10-17T17:01:16.797Z,3.47
2022-10-17T17:06:25.568Z,3.28
2022-10-17T17:11:32.512Z,3.45
2022-10-17T17:16:40.925Z,5.57
2022-10-17T17:21:50.898Z,4.03
2022-10-17T17:26:57.956Z,4.07
2022-10-17T17:32:06.806Z,5.07
2022-10-17T17:37:12.154Z,5.00
2022-10-17T17:42:17.810Z,4.80
2022-10-17T17:47:25.935Z,5.10
2022-10-17T17:52:33.194Z,4.47
2022-10-17T17:57:39.144Z,4.20
2022-10-17T18:02:48.658Z,3.80
2022-10-17T18:07:54.255Z,3.97
2022-10-17T18:13:00.190Z,3.65
2022-10-17T18:18:08.818Z,4.03
2022-10-17T18:23:14.337Z,3.47
2022-10-17T18:28:20.007Z,3.45
2022-10-17T18:33:28.483Z,3.58
2022-10-17T18:38:45.527Z,3.30
2022-10-17T18:43:53.299Z,2.93
2022-10-17T18:49:01.298Z,3.22
2022-10-17T18:54:07.354Z,2.70
2022-10-17T18:59:12.650Z,2.90
2022-10-17T19:04:20.861Z,3.00
2022-10-17T19:09:26.856Z,2.97
2022-10-17T19:14:32.828Z,2.73
2022-10-17T19:19:41.566Z,2.80
2022-10-17T19:24:47.434Z,2.90
2022-10-17T19:29:53.053Z,2.47
2022-10-17T19:35:01.132Z,3.63
2022-10-17T19:40:08.177Z,3.92
2022-10-17T19:45:13.728Z,2.57
2022-10-17T19:50:23.400Z,3.15
2022-10-17T19:55:30.843Z,3.58
2022-10-17T20:00:36.272Z,3.10
2022-10-17T20:05:48.582Z,2.95
2022-10-17T20:10:53.832Z,2.63
2022-10-17T20:16:00.465Z,2.40
2022-10-17T20:21:11.999Z,2.90
2022-10-17T20:31:48.277Z,2.70
2022-10-17T20:36:56.138Z,2.90
2022-10-17T20:42:02.903Z,3.50
2022-10-17T20:47:15.920Z,3.35
2022-10-17T20:52:24.521Z,3.50
2022-10-17T20:57:30.187Z,3.88
2022-10-17T21:02:35.976Z,3.72
2022-10-17T21:07:44.019Z,3.60
2022-10-17T21:12:53.875Z,3.28
2022-10-17T21:18:00.085Z,2.67
2022-10-17T21:23:07.945Z,2.60
2022-10-17T21:28:13.794Z,2.10
2022-10-17T21:33:19.221Z,2.70
2022-10-17T21:38:27.719Z,2.50
2022-10-17T21:43:33.709Z,2.40
2022-10-17T21:48:39.339Z,2.70
2022-10-17T21:53:48.065Z,2.57
2022-10-17T21:58:54.515Z,3.30
2022-10-17T22:04:02.440Z,2.85
2022-10-17T22:09:14.413Z,2.97
2022-10-17T22:14:21.797Z,3.20
2022-10-17T22:19:29.616Z,3.27
2022-10-17T22:24:37.650Z,2.20
2022-10-17T22:29:43.027Z,2.55
2022-10-17T22:34:48.985Z,1.83
2022-10-17T22:39:57.171Z,2.20
2022-10-17T22:45:02.710Z,2.30
2022-10-17T22:50:09.061Z,2.17
2022-10-17T22:55:17.616Z,2.33
2022-10-17T23:00:23.259Z,2.33
2022-10-17T23:05:29.020Z,2.35
2022-10-17T23:10:38.143Z,2.67
2022-10-17T23:15:44.383Z,2.20
2022-10-17T23:20:49.898Z,2.75
2022-10-17T23:25:59.160Z,2.33
2022-10-17T23:31:15.556Z,2.35
2022-10-17T23:36:22.786Z,2.30
2022-10-17T23:41:30.927Z,2.20
2022-10-17T23:46:36.790Z,2.70
2022-10-17T23:51:42.027Z,2.65
2022-10-17T23:56:50.223Z,2.50
